createdAt,value
2019-05-28T00:30:29.754Z,15.03
2019-05-28T00:31:39.005Z,15.75
2019-05-28T00:32:42.207Z,17.02
2019-05-28T00:33:45.219Z,15.90
2019-05-28T00:34:48.276Z,16.80
2019-05-28T00:47:52.644Z,17.67
2019-05-28T00:48:58.693Z,16.85
2019-05-28T00:50:04.823Z,16.90
2019-05-28T00:51:08.700Z,15.85
2019-05-28T00:52:11.757Z,17.40
2019-05-28T00:53:20.340Z,16.48
2019-05-28T00:54:24.316Z,16.65
2019-05-28T00:55:27.835Z,16.27
2019-05-28T00:56:31.770Z,17.30
2019-05-28T00:57:34.783Z,15.75
2019-05-28T00:58:38.104Z,16.35
2019-05-28T00:59:42.720Z,16.15
2019-05-28T01:00:47.676Z,16.75
2019-05-28T01:01:50.675Z,16.85
2019-05-28T01:02:53.613Z,16.45
2019-05-28T01:03:56.574Z,17.32
2019-05-28T01:04:59.536Z,16.32
2019-05-28T01:06:02.472Z,16.25
2019-05-28T01:07:05.421Z,16.45
2019-05-28T01:08:08.410Z,15.83
2019-05-28T01:09:11.378Z,14.95
2019-05-28T01:10:14.440Z,15.55
2019-05-28T01:11:17.416Z,15.25
2019-05-28T01:12:20.460Z,16.17
2019-05-28T01:13:23.489Z,15.75
2019-05-28T01:14:26.452Z,14.80
2019-05-28T01:15:29.535Z,15.00
2019-05-28T01:16:32.474Z,15.38
2019-05-28T01:17:35.412Z,15.25
2019-05-28T01:18:38.367Z,15.53
2019-05-28T01:19:41.321Z,16.05
2019-05-28T01:20:45.362Z,15.08
2019-05-28T01:21:48.297Z,14.25
2019-05-28T01:22:51.289Z,15.00
2019-05-28T01:23:54.256Z,15.98
2019-05-28T01:24:57.204Z,15.15
2019-05-28T01:26:00.191Z,14.53
2019-05-28T01:27:03.226Z,14.58
2019-05-28T01:28:06.148Z,15.25
2019-05-28T01:29:09.233Z,14.05
2019-05-28T01:30:12.555Z,15.38
2019-05-28T01:31:15.517Z,14.23
2019-05-28T01:32:18.600Z,14.28
2019-05-28T01:33:21.820Z,14.95
2019-05-28T01:34:25.050Z,14.35
2019-05-28T01:35:28.044Z,14.75
2019-05-28T01:36:31.004Z,14.93
2019-05-28T01:37:33.947Z,15.20
2019-05-28T01:38:36.921Z,14.90
2019-05-28T01:39:39.862Z,15.25
2019-05-28T01:40:42.908Z,14.75
2019-05-28T01:41:45.928Z,14.40
2019-05-28T01:42:48.913Z,13.93
2019-05-28T01:43:51.873Z,15.50
2019-05-28T01:44:54.821Z,13.88
2019-05-28T01:45:57.815Z,14.43
2019-05-28T01:47:00.710Z,14.33
2019-05-28T01:48:03.730Z,14.98
2019-05-28T01:49:06.621Z,14.50
2019-05-28T01:50:09.821Z,14.87
2019-05-28T01:51:12.789Z,14.35
2019-05-28T01:52:15.708Z,14.38
2019-05-28T01:53:18.617Z,14.30
2019-05-28T01:54:21.520Z,13.62
2019-05-28T01:55:24.438Z,14.95
2019-05-28T01:56:27.265Z,15.45
2019-05-28T01:57:30.243Z,14.40
2019-05-28T01:58:33.129Z,15.23
2019-05-28T01:59:36.040Z,14.93
2019-05-28T02:00:38.931Z,14.47
2019-05-28T02:01:41.886Z,14.30
2019-05-28T02:02:44.859Z,14.40
2019-05-28T02:03:47.796Z,15.35
2019-05-28T02:04:50.891Z,15.60
2019-05-28T02:05:53.854Z,16.00
2019-05-28T02:06:56.797Z,15.20
2019-05-28T02:07:59.721Z,15.48
2019-05-28T02:09:03.605Z,14.68
2019-05-28T02:10:06.877Z,15.18
2019-05-28T02:11:09.910Z,15.93
2019-05-28T02:12:12.821Z,15.72
2019-05-28T02:13:15.743Z,17.52
2019-05-28T02:14:18.664Z,16.77
2019-05-28T02:15:22.020Z,16.37
2019-05-28T02:16:25.039Z,16.25
2019-05-28T02:17:27.956Z,14.78
2019-05-28T02:18:30.926Z,16.17
2019-05-28T02:19:33.870Z,17.02
2019-05-28T02:20:36.764Z,17.35
2019-05-28T02:21:39.744Z,17.20
2019-05-28T02:22:42.671Z,16.70
2019-05-28T02:23:45.847Z,16.12
2019-05-28T02:24:49.661Z,17.92
2019-05-28T02:25:52.572Z,15.68
2019-05-28T02:26:55.572Z,17.10
2019-05-28T02:27:58.545Z,17.23
2019-05-28T02:29:01.520Z,17.12
2019-05-28T02:30:05.686Z,18.37
2019-05-28T02:31:08.773Z,17.60
2019-05-28T02:32:11.678Z,18.55
2019-05-28T02:33:14.697Z,19.10
2019-05-28T02:34:17.585Z,17.85
2019-05-28T02:35:22.501Z,18.32
2019-05-28T02:36:25.400Z,17.77
2019-05-28T02:37:28.301Z,16.35
2019-05-28T02:38:31.274Z,17.15
2019-05-28T02:39:34.173Z,17.32
2019-05-28T02:40:37.065Z,17.62
2019-05-28T02:41:39.960Z,17.82
2019-05-28T02:42:42.879Z,17.55
2019-05-28T02:43:45.794Z,18.37
2019-05-28T02:44:48.589Z,17.00
2019-05-28T02:45:51.857Z,18.07
2019-05-28T02:46:54.737Z,18.07
2019-05-28T02:47:57.635Z,16.93
2019-05-28T02:49:00.621Z,15.98
2019-05-28T02:50:04.191Z,15.58
2019-05-28T02:51:07.104Z,16.62
2019-05-28T02:52:10.046Z,17.62
2019-05-28T02:53:12.973Z,16.85
2019-05-28T02:54:16.045Z,18.20
2019-05-28T02:55:19.040Z,17.02
2019-05-28T02:56:25.285Z,16.73
2019-05-28T02:57:29.393Z,15.88
2019-05-28T02:58:34.739Z,16.50
2019-05-28T02:59:38.006Z,15.53
2019-05-28T03:00:42.924Z,17.37
2019-05-28T03:01:49.490Z,16.32
2019-05-28T03:02:52.791Z,17.12
2019-05-28T03:03:58.958Z,16.90
2019-05-28T03:05:05.631Z,17.15
2019-05-28T03:06:12.193Z,16.95
2019-05-28T03:07:15.354Z,16.15
2019-05-28T03:08:22.780Z,16.82
2019-05-28T03:09:25.922Z,16.15
2019-05-28T03:10:59.614Z,15.43
2019-05-28T03:11:39.861Z,16.02
2019-05-28T03:12:43.015Z,15.78
2019-05-28T03:13:45.901Z,16.00
2019-05-28T03:14:48.856Z,16.37
2019-05-28T03:15:54.498Z,15.93
2019-05-28T03:17:01.047Z,16.05
2019-05-28T03:18:06.355Z,15.48
2019-05-28T03:19:10.056Z,15.55
2019-05-28T03:20:13.810Z,16.12
2019-05-28T03:21:17.521Z,16.55
2019-05-28T03:22:21.607Z,15.58
2019-05-28T03:23:26.597Z,16.37
2019-05-28T03:24:31.590Z,16.73
2019-05-28T03:25:37.880Z,14.93
2019-05-28T03:26:40.874Z,15.78
2019-05-28T03:27:43.783Z,14.65
2019-05-28T03:28:46.797Z,15.08
2019-05-28T03:29:49.952Z,16.48
2019-05-28T03:30:52.858Z,16.55
2019-05-28T03:32:08.025Z,15.68
2019-05-28T03:33:00.546Z,15.98
2019-05-28T03:34:03.615Z,14.90
2019-05-28T03:35:06.669Z,15.25
2019-05-28T03:36:11.481Z,16.77
2019-05-28T03:37:16.502Z,17.80
2019-05-28T03:38:20.426Z,16.17
2019-05-28T03:39:25.541Z,18.23
2019-05-28T03:40:41.183Z,16.40
2019-05-28T03:41:44.110Z,16.25
2019-05-28T03:42:49.817Z,15.40
2019-05-28T03:43:52.753Z,17.02
2019-05-28T03:44:55.658Z,17.90
2019-05-28T03:45:59.700Z,17.67
2019-05-28T03:47:02.710Z,16.95
2019-05-28T03:48:05.630Z,16.62
2019-05-28T03:49:08.658Z,18.20
2019-05-28T03:50:11.790Z,18.90
2019-05-28T03:51:14.822Z,18.20
2019-05-28T03:52:17.789Z,18.52
2019-05-28T03:53:20.753Z,20.17
2019-05-28T03:54:23.657Z,18.82
2019-05-28T03:55:26.593Z,19.20
2019-05-28T03:56:29.524Z,17.77
2019-05-28T03:57:32.518Z,18.25
2019-05-28T03:58:36.450Z,18.92
2019-05-28T03:59:39.368Z,18.92
2019-05-28T04:00:42.280Z,18.80
2019-05-28T04:01:45.181Z,20.15
2019-05-28T04:02:48.089Z,19.98
2019-05-28T04:03:51.029Z,20.40
2019-05-28T04:04:54.081Z,17.82
2019-05-28T04:05:56.994Z,19.57
2019-05-28T04:06:59.914Z,19.30
2019-05-28T04:08:02.868Z,20.45
2019-05-28T04:09:07.366Z,18.17
2019-05-28T04:10:10.464Z,20.90
2019-05-28T04:11:13.412Z,21.07
2019-05-28T04:12:16.300Z,20.62
2019-05-28T04:13:19.310Z,21.62
2019-05-28T04:14:22.269Z,20.57
2019-05-28T04:15:25.165Z,21.85
2019-05-28T04:16:28.068Z,22.50
2019-05-28T04:17:30.991Z,23.60
2019-05-28T04:18:33.900Z,24.45
2019-05-28T04:19:36.809Z,22.17
2019-05-28T04:20:39.719Z,22.30
2019-05-28T04:21:42.622Z,23.80
2019-05-28T04:22:45.533Z,24.43
2019-05-28T04:23:48.362Z,22.98
2019-05-28T04:24:51.378Z,21.75
2019-05-28T04:25:54.486Z,24.40
2019-05-28T04:26:57.527Z,25.27
2019-05-28T04:28:00.456Z,25.57
2019-05-28T04:29:03.501Z,24.85
2019-05-28T04:30:06.758Z,24.85
2019-05-28T04:31:12.462Z,26.52
2019-05-28T04:32:15.532Z,26.30
2019-05-28T04:33:18.356Z,26.02
2019-05-28T04:34:21.313Z,26.85
2019-05-28T04:35:24.374Z,27.02
2019-05-28T04:36:27.290Z,25.75
2019-05-28T04:37:30.185Z,24.57
2019-05-28T04:38:33.087Z,25.10
2019-05-28T04:39:36.032Z,25.75
2019-05-28T04:40:38.949Z,24.50
2019-05-28T04:41:41.892Z,19.80
2019-05-28T04:42:44.801Z,22.30
2019-05-28T04:43:47.694Z,22.35
2019-05-28T04:44:50.686Z,21.73
2019-05-28T04:45:53.669Z,21.42
2019-05-28T04:46:56.666Z,21.55
2019-05-28T04:47:59.599Z,21.07
2019-05-28T04:49:02.512Z,18.60
2019-05-28T04:50:05.799Z,16.85
2019-05-28T04:51:08.918Z,18.80
2019-05-28T04:52:11.817Z,15.00
2019-05-28T04:53:14.723Z,16.85
2019-05-28T04:54:17.617Z,16.32
2019-05-28T04:55:20.532Z,14.65
2019-05-28T04:56:23.477Z,13.53
2019-05-28T04:57:26.412Z,14.60
2019-05-28T04:58:29.294Z,15.85
2019-05-28T04:59:32.193Z,15.75
2019-05-28T05:00:35.109Z,16.95
2019-05-28T05:01:38.158Z,15.28
2019-05-28T05:02:57.818Z,14.13
2019-05-28T05:03:47.546Z,15.45
2019-05-28T05:04:50.533Z,14.40
2019-05-28T05:05:53.505Z,14.63
2019-05-28T05:06:56.462Z,13.58
2019-05-28T05:07:59.791Z,13.13
2019-05-28T05:09:03.917Z,14.70
2019-05-28T05:10:07.070Z,14.40
2019-05-28T05:11:10.236Z,14.45
2019-05-28T05:12:13.167Z,14.25
2019-05-28T05:13:16.114Z,14.58
2019-05-28T05:14:19.078Z,13.78
2019-05-28T05:15:21.980Z,13.22
2019-05-28T05:16:24.894Z,13.95
2019-05-28T05:17:27.956Z,12.33
2019-05-28T05:18:30.825Z,13.78
2019-05-28T05:19:33.646Z,12.80
2019-05-28T05:20:36.437Z,11.35
2019-05-28T05:21:39.458Z,10.75
2019-05-28T05:22:42.409Z,11.45
2019-05-28T05:23:48.435Z,10.03
2019-05-28T05:24:51.393Z,10.88
2019-05-28T05:25:55.317Z,11.80
2019-05-28T05:26:58.250Z,10.28
2019-05-28T05:28:01.197Z,11.10
2019-05-28T05:29:04.114Z,9.78
2019-05-28T05:30:07.321Z,10.38
2019-05-28T05:31:10.305Z,10.03
2019-05-28T05:32:13.229Z,9.98
2019-05-28T05:33:20.480Z,10.72
2019-05-28T05:34:21.106Z,8.73
2019-05-28T05:35:24.061Z,9.20
2019-05-28T05:36:27.049Z,8.98
2019-05-28T05:37:30.037Z,7.28
2019-05-28T05:38:33.016Z,8.50
2019-05-28T05:39:35.912Z,7.58
2019-05-28T05:40:38.712Z,7.20
2019-05-28T05:41:41.701Z,7.25
2019-05-28T05:42:44.641Z,7.60
2019-05-28T05:43:47.556Z,8.25
2019-05-28T05:44:50.754Z,8.30
2019-05-28T05:45:53.694Z,8.18
2019-05-28T05:46:56.613Z,7.80
2019-05-28T05:47:59.506Z,6.37
2019-05-28T05:49:02.550Z,6.28
2019-05-28T05:50:05.737Z,6.45
2019-05-28T05:51:08.666Z,6.97
2019-05-28T05:52:11.858Z,5.80
2019-05-28T05:53:14.763Z,6.45
2019-05-28T05:54:20.437Z,6.42
2019-05-28T05:55:23.428Z,6.30
2019-05-28T05:56:26.495Z,5.97
2019-05-28T05:57:29.425Z,5.05
2019-05-28T05:58:32.338Z,4.85
2019-05-28T05:59:35.278Z,6.05
2019-05-28T06:00:38.210Z,5.55
2019-05-28T06:01:41.127Z,5.20
2019-05-28T06:02:44.014Z,5.28
2019-05-28T06:03:46.943Z,5.15
2019-05-28T06:04:50.004Z,5.67
2019-05-28T06:05:52.900Z,5.55
2019-05-28T06:06:55.750Z,5.42
2019-05-28T06:07:59.833Z,5.25
2019-05-28T06:09:05.030Z,5.60
2019-05-28T06:10:08.204Z,23.70
2019-05-28T06:11:11.098Z,6.20
2019-05-28T06:12:14.045Z,5.10
2019-05-28T06:13:16.924Z,6.00
2019-05-28T06:14:19.862Z,5.85
2019-05-28T06:15:22.813Z,5.10
2019-05-28T06:16:25.746Z,5.65
2019-05-28T06:17:28.734Z,4.75
2019-05-28T06:18:31.721Z,4.67
2019-05-28T06:19:34.634Z,4.60
2019-05-28T06:20:37.682Z,4.95
2019-05-28T06:21:40.581Z,4.30
2019-05-28T06:22:43.762Z,5.17
2019-05-28T06:23:46.693Z,4.20
2019-05-28T06:24:49.594Z,5.03
2019-05-28T06:25:52.550Z,4.70
2019-05-28T06:26:55.479Z,4.87
2019-05-28T06:27:58.374Z,4.55
2019-05-28T06:29:01.308Z,5.20
2019-05-28T06:30:05.666Z,4.47
2019-05-28T06:31:09.661Z,4.33
2019-05-28T06:32:12.677Z,5.00
2019-05-28T06:33:15.538Z,4.83
2019-05-28T06:34:18.464Z,4.40
2019-05-28T06:35:22.268Z,4.28
2019-05-28T06:36:25.204Z,4.95
2019-05-28T06:37:28.985Z,4.78
2019-05-28T06:38:31.884Z,4.00
2019-05-28T06:39:34.816Z,4.67
2019-05-28T06:40:37.765Z,4.45
2019-05-28T06:41:40.709Z,4.00
2019-05-28T06:42:43.623Z,4.05
2019-05-28T06:43:46.536Z,4.50
2019-05-28T06:44:49.536Z,4.35
2019-05-28T06:45:52.469Z,4.72
2019-05-28T06:46:55.421Z,4.62
2019-05-28T06:47:58.365Z,5.12
2019-05-28T06:49:01.303Z,4.42
2019-05-28T06:50:06.613Z,4.85
2019-05-28T06:51:09.549Z,5.97
2019-05-28T06:52:12.517Z,4.17
2019-05-28T06:53:15.493Z,4.47
2019-05-28T06:54:18.429Z,7.45
2019-05-28T06:55:21.321Z,4.60
2019-05-28T06:56:24.256Z,4.50
2019-05-28T06:57:27.305Z,4.00
2019-05-28T06:58:39.595Z,4.33
2019-05-28T06:59:34.941Z,4.30
2019-05-28T07:00:37.883Z,3.52
2019-05-28T07:01:40.782Z,3.95
2019-05-28T07:02:43.710Z,4.30
2019-05-28T07:03:46.596Z,4.35
2019-05-28T07:04:49.515Z,21.62
2019-05-28T07:06:06.449Z,9.53
2019-05-28T07:06:59.129Z,64.42
2019-05-28T07:08:02.173Z,4.60
2019-05-28T07:09:05.958Z,4.35
2019-05-28T07:10:09.065Z,3.60
2019-05-28T07:11:14.597Z,3.60
2019-05-28T07:12:18.382Z,3.92
2019-05-28T07:13:21.490Z,4.25
2019-05-28T07:14:24.422Z,3.92
2019-05-28T07:15:27.386Z,4.15
2019-05-28T07:16:30.333Z,4.08
2019-05-28T07:17:33.275Z,3.55
2019-05-28T07:18:36.190Z,3.52
2019-05-28T07:19:39.473Z,3.27
2019-05-28T07:20:42.421Z,4.10
2019-05-28T07:21:45.302Z,4.00
2019-05-28T07:22:48.258Z,4.62
2019-05-28T07:23:51.219Z,3.02
2019-05-28T07:24:54.203Z,4.22
2019-05-28T07:25:57.117Z,3.58
2019-05-28T07:27:00.054Z,3.58
2019-05-28T07:28:11.106Z,3.62
2019-05-28T07:29:08.878Z,3.47
2019-05-28T07:30:15.113Z,3.00
2019-05-28T07:31:18.040Z,3.35
2019-05-28T07:32:20.931Z,3.02
2019-05-28T07:33:23.883Z,3.25
2019-05-28T07:34:30.767Z,2.95
2019-05-28T07:35:44.735Z,2.70
2019-05-28T07:36:36.270Z,2.87
2019-05-28T07:37:39.198Z,2.55
2019-05-28T07:38:42.307Z,2.50
2019-05-28T07:39:45.295Z,2.70
2019-05-28T07:40:48.207Z,2.50
2019-05-28T07:41:51.187Z,2.47
2019-05-28T07:42:54.105Z,3.12
2019-05-28T07:43:57.034Z,3.08
2019-05-28T07:44:59.980Z,2.62
2019-05-28T07:46:02.890Z,3.65
2019-05-28T07:47:05.820Z,3.35
2019-05-28T07:48:08.789Z,2.70
2019-05-28T07:49:11.776Z,2.77
2019-05-28T07:50:14.883Z,3.20
2019-05-28T07:51:17.788Z,3.72
2019-05-28T07:52:20.821Z,3.90
2019-05-28T07:53:38.714Z,3.00
2019-05-28T07:54:28.516Z,3.10
2019-05-28T07:55:31.505Z,3.47
2019-05-28T07:56:37.336Z,3.00
2019-05-28T07:57:40.296Z,2.75
2019-05-28T07:58:43.274Z,3.20
2019-05-28T07:59:46.173Z,2.90
2019-05-28T08:00:52.086Z,3.05
2019-05-28T08:01:55.044Z,2.83
2019-05-28T08:02:57.975Z,2.85
2019-05-28T08:04:00.945Z,2.95
2019-05-28T08:05:04.526Z,2.83
2019-05-28T08:06:07.483Z,2.67
2019-05-28T08:07:10.378Z,3.35
2019-05-28T08:08:17.142Z,2.70
2019-05-28T08:09:20.150Z,3.10
2019-05-28T08:10:23.065Z,2.75
2019-05-28T08:11:26.098Z,2.95
2019-05-28T08:12:29.000Z,2.60
2019-05-28T08:13:40.623Z,2.80
2019-05-28T08:14:36.668Z,2.80
2019-05-28T08:15:39.735Z,2.50
2019-05-28T08:16:52.295Z,2.25
2019-05-28T08:17:47.435Z,2.40
2019-05-28T08:18:50.359Z,2.65
2019-05-28T08:19:53.321Z,2.47
2019-05-28T08:20:56.230Z,2.22
2019-05-28T08:21:59.296Z,2.45
2019-05-28T08:23:02.372Z,2.20
2019-05-28T08:24:05.288Z,2.00
2019-05-28T08:25:22.185Z,2.60
2019-05-28T08:26:14.875Z,2.42
2019-05-28T08:27:18.042Z,2.45
2019-05-28T08:28:20.933Z,3.35
2019-05-28T08:29:23.874Z,2.08
2019-05-28T08:30:26.936Z,2.22
2019-05-28T08:31:29.865Z,2.20
2019-05-28T08:32:32.810Z,3.08
2019-05-28T08:33:35.711Z,4.12
2019-05-28T08:34:38.689Z,3.00
2019-05-28T08:35:41.635Z,2.35
2019-05-28T08:36:44.637Z,2.65
2019-05-28T08:37:47.761Z,2.05
2019-05-28T08:38:50.729Z,2.00
2019-05-28T08:39:53.813Z,2.75
2019-05-28T08:40:59.757Z,2.22
2019-05-28T08:42:02.952Z,2.50
2019-05-28T08:43:05.878Z,2.62
2019-05-28T08:44:08.812Z,2.65
2019-05-28T08:45:12.147Z,2.40
2019-05-28T08:46:15.337Z,2.37
2019-05-28T08:47:18.483Z,2.62
2019-05-28T08:48:21.490Z,2.85
2019-05-28T08:49:27.177Z,2.30
2019-05-28T08:50:34.640Z,3.08
2019-05-28T08:51:34.923Z,2.70
2019-05-28T08:52:37.849Z,3.15
2019-05-28T08:53:41.240Z,2.20
2019-05-28T08:54:44.368Z,2.92
2019-05-28T08:55:50.116Z,3.05
2019-05-28T08:56:54.105Z,2.80
2019-05-28T08:57:57.132Z,2.02
2019-05-28T08:59:03.197Z,2.77
2019-05-28T09:00:10.372Z,2.00
2019-05-28T09:01:13.313Z,2.50
2019-05-28T09:02:28.036Z,2.20
2019-05-28T09:03:23.934Z,2.70
2019-05-28T09:04:26.841Z,2.80
2019-05-28T09:05:29.774Z,2.27
2019-05-28T09:06:32.721Z,2.75
2019-05-28T09:07:35.894Z,2.70
2019-05-28T09:08:40.222Z,3.90
2019-05-28T09:09:43.364Z,2.40
2019-05-28T09:10:46.398Z,2.20
2019-05-28T09:11:49.301Z,2.15
2019-05-28T09:12:52.245Z,2.35
2019-05-28T09:13:55.200Z,2.47
2019-05-28T09:14:58.170Z,2.33
2019-05-28T09:16:01.047Z,2.20
2019-05-28T09:17:04.735Z,2.12
2019-05-28T09:18:08.170Z,2.90
2019-05-28T09:19:11.046Z,3.15
2019-05-28T09:20:16.790Z,2.65
2019-05-28T09:21:19.714Z,2.67
2019-05-28T09:22:26.188Z,2.42
2019-05-28T09:23:27.381Z,2.77
2019-05-28T09:24:30.326Z,2.17
2019-05-28T09:25:33.276Z,2.80
2019-05-28T09:26:36.215Z,2.58
2019-05-28T09:27:39.153Z,2.22
2019-05-28T09:28:42.086Z,2.50
2019-05-28T09:29:45.026Z,2.05
2019-05-28T09:30:48.022Z,2.22
2019-05-28T09:31:50.957Z,2.20
2019-05-28T09:32:53.985Z,2.27
2019-05-28T09:33:56.913Z,2.55
2019-05-28T09:35:02.762Z,1.90
2019-05-28T09:36:08.594Z,2.10
2019-05-28T09:37:10.337Z,2.10
2019-05-28T09:38:13.353Z,2.40
2019-05-28T09:39:16.424Z,2.30
2019-05-28T09:40:19.986Z,2.52
2019-05-28T09:41:23.061Z,2.40
2019-05-28T09:42:27.010Z,2.47
2019-05-28T09:43:29.974Z,2.25
2019-05-28T09:44:32.942Z,2.75
2019-05-28T09:45:35.901Z,1.98
2019-05-28T09:46:38.913Z,2.80
2019-05-28T09:47:41.857Z,2.12
2019-05-28T09:48:44.773Z,2.00
2019-05-28T09:49:47.779Z,2.25
2019-05-28T09:50:51.939Z,1.95
2019-05-28T09:51:55.149Z,2.17
2019-05-28T09:52:58.098Z,2.70
2019-05-28T09:54:01.033Z,2.50
2019-05-28T09:55:04.594Z,2.47
2019-05-28T09:56:07.571Z,2.85
2019-05-28T09:57:10.498Z,2.77
2019-05-28T09:58:13.437Z,2.10
2019-05-28T09:59:16.742Z,2.57
2019-05-28T10:00:21.523Z,2.10
2019-05-28T10:01:24.834Z,2.65
2019-05-28T10:02:27.795Z,2.65
2019-05-28T10:03:31.182Z,2.47
2019-05-28T10:04:48.339Z,2.30
2019-05-28T10:05:39.086Z,2.22
2019-05-28T10:06:42.017Z,2.47
2019-05-28T10:07:44.941Z,2.70
2019-05-28T10:08:47.893Z,2.30
2019-05-28T10:09:53.389Z,1.90
2019-05-28T10:10:56.316Z,2.73
2019-05-28T10:11:59.654Z,2.70
2019-05-28T10:13:02.650Z,2.27
2019-05-28T10:14:05.682Z,2.40
2019-05-28T10:15:08.792Z,2.00
2019-05-28T10:16:11.786Z,2.30
2019-05-28T10:17:14.941Z,2.00
2019-05-28T10:18:18.021Z,2.55
2019-05-28T10:19:20.989Z,2.47
2019-05-28T10:20:24.086Z,2.50
2019-05-28T10:21:27.028Z,2.40
2019-05-28T10:22:30.967Z,2.43
2019-05-28T10:23:33.917Z,2.10
2019-05-28T10:24:36.898Z,2.47
2019-05-28T10:25:39.829Z,2.50
2019-05-28T10:26:42.748Z,2.37
2019-05-28T10:27:59.975Z,2.52
2019-05-28T10:28:50.762Z,2.37
2019-05-28T10:29:53.660Z,2.62
2019-05-28T10:30:56.590Z,2.60
2019-05-28T10:31:59.529Z,2.50
2019-05-28T10:33:02.564Z,2.40
2019-05-28T10:34:05.401Z,2.70
2019-05-28T10:35:09.090Z,1.87
2019-05-28T10:36:12.037Z,2.53
2019-05-28T10:37:15.157Z,2.42
2019-05-28T10:38:18.057Z,2.10
2019-05-28T10:39:20.960Z,2.45
2019-05-28T10:40:24.200Z,4.47
2019-05-28T10:41:27.131Z,3.00
2019-05-28T10:42:30.129Z,2.50
2019-05-28T10:43:33.081Z,3.47
2019-05-28T10:44:36.190Z,3.33
2019-05-28T10:45:40.241Z,2.98
2019-05-28T10:46:43.265Z,3.30
2019-05-28T10:47:46.284Z,4.05
2019-05-28T10:48:49.126Z,3.85
2019-05-28T10:49:52.137Z,3.85
2019-05-28T10:50:55.114Z,3.37
2019-05-28T10:51:58.137Z,3.17
2019-05-28T10:53:01.071Z,2.72
2019-05-28T10:54:04.177Z,3.20
2019-05-28T10:55:07.188Z,2.83
2019-05-28T10:56:10.279Z,3.60
2019-05-28T10:57:13.333Z,3.27
2019-05-28T10:58:16.360Z,2.92
2019-05-28T10:59:19.296Z,2.98
2019-05-28T11:00:23.150Z,3.10
2019-05-28T11:01:26.093Z,3.70
2019-05-28T11:02:29.026Z,2.72
2019-05-28T11:03:31.995Z,3.42
2019-05-28T11:04:35.087Z,2.85
2019-05-28T11:05:38.063Z,3.05
2019-05-28T11:06:51.347Z,2.87
2019-05-28T11:07:45.808Z,2.95
2019-05-28T11:08:48.754Z,3.02
2019-05-28T11:09:51.693Z,2.92
2019-05-28T11:10:54.559Z,2.90
2019-05-28T11:11:57.889Z,2.83
2019-05-28T11:13:00.906Z,3.05
2019-05-28T11:14:04.273Z,3.00
2019-05-28T11:15:08.780Z,3.00
2019-05-28T11:16:11.709Z,2.60
2019-05-28T11:17:14.853Z,2.87
2019-05-28T11:18:17.867Z,2.80
2019-05-28T11:19:20.757Z,3.30
2019-05-28T11:20:23.755Z,3.40
2019-05-28T11:21:26.669Z,2.72
2019-05-28T11:22:29.749Z,3.17
2019-05-28T11:23:32.689Z,3.25
2019-05-28T11:24:35.634Z,3.17
2019-05-28T11:25:38.540Z,2.65
2019-05-28T11:26:41.511Z,3.17
2019-05-28T11:27:44.481Z,3.02
2019-05-28T11:28:47.378Z,3.22
2019-05-28T11:29:50.346Z,2.98
2019-05-28T11:30:53.248Z,3.27
2019-05-28T11:31:56.188Z,3.40
2019-05-28T11:32:59.145Z,3.35
2019-05-28T11:34:02.041Z,3.52
2019-05-28T11:35:06.889Z,2.90
2019-05-28T11:36:09.798Z,3.00
2019-05-28T11:37:12.708Z,2.10
2019-05-28T11:38:15.746Z,2.50
2019-05-28T11:39:18.656Z,2.47
2019-05-28T11:40:21.761Z,2.25
2019-05-28T11:41:40.940Z,1.98
2019-05-28T11:42:29.464Z,2.50
2019-05-28T11:43:32.485Z,2.12
2019-05-28T11:44:35.402Z,2.27
2019-05-28T11:45:38.298Z,2.20
2019-05-28T11:46:41.222Z,2.05
2019-05-28T11:47:44.539Z,2.45
2019-05-28T11:48:47.489Z,2.40
2019-05-28T11:49:50.422Z,2.10
2019-05-28T11:50:53.328Z,2.02
2019-05-28T11:51:56.261Z,1.90
2019-05-28T11:52:59.260Z,2.60
2019-05-28T11:54:02.166Z,2.33
2019-05-28T11:55:09.585Z,2.17
2019-05-28T11:56:12.508Z,2.20
2019-05-28T11:57:15.592Z,2.70
2019-05-28T11:58:18.566Z,5.83
2019-05-28T11:59:21.493Z,3.37
2019-05-28T12:00:25.313Z,2.60
2019-05-28T12:01:34.268Z,2.60
2019-05-28T12:02:32.958Z,2.42
2019-05-28T12:03:35.973Z,2.52
2019-05-28T12:04:38.961Z,2.10
2019-05-28T12:05:41.924Z,1.92
2019-05-28T12:06:44.877Z,2.35
2019-05-28T12:07:51.710Z,2.08
2019-05-28T12:08:53.337Z,2.65
2019-05-28T12:09:56.362Z,2.05
2019-05-28T12:10:59.209Z,13.45
2019-05-28T12:12:02.105Z,3.50
2019-05-28T12:13:05.022Z,2.45
2019-05-28T12:14:07.978Z,3.10
2019-05-28T12:15:12.131Z,2.65
2019-05-28T12:16:15.161Z,2.90
2019-05-28T12:17:18.166Z,2.60
2019-05-28T12:18:21.192Z,2.60
2019-05-28T12:19:24.071Z,2.70
2019-05-28T12:20:28.429Z,3.10
2019-05-28T12:21:31.428Z,2.40
2019-05-28T12:22:34.439Z,3.35
2019-05-28T12:23:37.344Z,2.87
2019-05-28T12:24:43.258Z,2.85
2019-05-28T12:25:46.299Z,3.58
2019-05-28T12:26:49.283Z,3.90
2019-05-28T12:27:52.157Z,2.52
2019-05-28T12:28:55.150Z,3.80
2019-05-28T12:29:58.141Z,3.08
2019-05-28T12:31:01.085Z,2.58
2019-05-28T12:32:06.386Z,3.33
2019-05-28T12:33:10.005Z,2.98
2019-05-28T12:34:12.947Z,3.20
2019-05-28T12:35:27.386Z,3.05
2019-05-28T12:36:21.058Z,3.20
2019-05-28T12:37:23.957Z,2.83
2019-05-28T12:38:26.901Z,3.90
2019-05-28T12:39:29.848Z,3.30
2019-05-28T12:40:46.557Z,5.10
2019-05-28T12:41:37.572Z,5.25
2019-05-28T12:42:40.577Z,3.37
2019-05-28T12:43:43.526Z,3.27
2019-05-28T12:44:46.513Z,3.40
2019-05-28T12:45:49.448Z,3.85
2019-05-28T12:46:53.398Z,3.30
2019-05-28T12:48:10.183Z,3.08
2019-05-28T12:49:01.153Z,3.33
2019-05-28T12:50:18.140Z,3.90
2019-05-28T12:51:10.107Z,4.15
2019-05-28T12:52:13.055Z,4.05
2019-05-28T12:53:18.997Z,3.58
2019-05-28T12:54:21.870Z,4.20
2019-05-28T12:55:24.903Z,3.72
2019-05-28T12:56:27.814Z,2.60
2019-05-28T12:57:30.736Z,2.30
2019-05-28T12:58:42.145Z,2.33
2019-05-28T12:59:38.402Z,3.22
2019-05-28T13:00:41.544Z,3.37
2019-05-28T13:01:44.465Z,3.35
2019-05-28T13:02:48.439Z,3.87
2019-05-28T13:03:52.112Z,3.75
2019-05-28T13:04:55.065Z,4.50
2019-05-28T13:05:58.094Z,3.80
2019-05-28T13:07:01.066Z,4.30
2019-05-28T13:08:09.028Z,3.95
2019-05-28T13:09:08.831Z,4.60
2019-05-28T13:10:13.169Z,4.03
2019-05-28T13:11:16.362Z,5.12
2019-05-28T13:12:19.359Z,4.35
2019-05-28T13:13:22.350Z,4.75
2019-05-28T13:14:26.347Z,3.92
2019-05-28T13:15:29.393Z,4.12
2019-05-28T13:16:32.324Z,5.90
2019-05-28T13:17:35.258Z,4.80
2019-05-28T13:18:38.200Z,6.40
2019-05-28T13:19:41.154Z,5.00
2019-05-28T13:20:47.887Z,6.08
2019-05-28T13:21:48.804Z,6.05
2019-05-28T13:22:51.719Z,4.60
2019-05-28T13:23:54.795Z,4.50
2019-05-28T13:24:57.694Z,4.00
2019-05-28T13:26:00.610Z,4.17
2019-05-28T13:27:17.704Z,4.17
2019-05-28T13:28:08.260Z,5.33
2019-05-28T13:29:11.203Z,5.17
2019-05-28T13:30:15.028Z,4.10
2019-05-28T13:31:18.018Z,4.70
2019-05-28T13:32:20.946Z,4.55
2019-05-28T13:33:23.842Z,4.78
2019-05-28T13:34:26.838Z,5.17
2019-05-28T13:35:29.744Z,5.25
2019-05-28T13:36:32.670Z,5.10
2019-05-28T13:37:35.750Z,4.90
2019-05-28T13:38:42.551Z,5.28
2019-05-28T13:39:43.526Z,6.05
2019-05-28T13:40:46.456Z,5.60
2019-05-28T13:41:49.477Z,4.72
2019-05-28T13:42:52.592Z,5.00
2019-05-28T13:43:55.594Z,5.30
2019-05-28T13:44:58.672Z,4.65
2019-05-28T13:46:01.656Z,4.58
2019-05-28T13:47:04.720Z,5.10
2019-05-28T13:48:07.673Z,4.95
2019-05-28T13:49:10.592Z,4.97
2019-05-28T13:50:14.819Z,5.37
2019-05-28T13:51:17.752Z,5.55
2019-05-28T13:52:20.712Z,5.03
2019-05-28T13:53:29.361Z,5.20
2019-05-28T13:54:32.333Z,5.92
2019-05-28T13:55:35.338Z,4.65
2019-05-28T13:56:38.290Z,5.10
2019-05-28T13:57:41.287Z,4.92
2019-05-28T13:58:44.258Z,4.83
2019-05-28T13:59:47.208Z,5.28
2019-05-28T14:00:50.121Z,5.75
2019-05-28T14:01:53.016Z,5.97
2019-05-28T14:02:56.020Z,5.35
2019-05-28T14:03:58.909Z,5.78
2019-05-28T14:05:01.842Z,5.10
2019-05-28T14:06:04.845Z,5.10
2019-05-28T14:07:07.869Z,5.00
2019-05-28T14:08:10.818Z,5.47
2019-05-28T14:09:13.719Z,5.10
2019-05-28T14:10:17.125Z,4.87
2019-05-28T14:11:20.041Z,5.20
2019-05-28T14:12:23.037Z,8.85
2019-05-28T14:13:26.019Z,6.10
2019-05-28T14:14:29.119Z,5.90
2019-05-28T14:15:32.074Z,5.33
2019-05-28T14:16:35.042Z,5.50
2019-05-28T14:17:37.975Z,5.75
2019-05-28T14:18:40.900Z,5.60
2019-05-28T14:19:43.714Z,5.25
2019-05-28T14:20:47.649Z,5.03
2019-05-28T14:21:50.565Z,5.10
2019-05-28T14:22:53.477Z,4.92
2019-05-28T14:23:56.446Z,5.37
2019-05-28T14:24:59.389Z,6.22
2019-05-28T14:26:02.349Z,6.45
2019-05-28T14:27:05.258Z,6.00
2019-05-28T14:28:08.193Z,6.50
2019-05-28T14:29:11.122Z,6.83
2019-05-28T14:30:15.085Z,5.58
2019-05-28T14:31:18.018Z,5.45
2019-05-28T14:32:20.991Z,6.75
2019-05-28T14:33:24.122Z,5.92
2019-05-28T14:34:27.058Z,5.78
2019-05-28T14:35:29.958Z,5.20